sensor_id;sensor_type;location;lat;lon;timestamp;temperature;humidity
4079;DHT22;2054;47.858;11.156;2024-03-22T03:47:07;4.80;99.90
4079;DHT22;2054;47.858;11.156;2024-03-22T03:49:33;4.80;99.90
4079;DHT22;2054;47.858;11.156;2024-03-22T03:51:59;4.70;99.90
4079;DHT22;2054;47.858;11.156;2024-03-22T03:54:24;4.70;99.90
4079;DHT22;2054;47.858;11.156;2024-03-22T03:56:51;4.70;99.90
4079;DHT22;2054;47.858;11.156;2024-03-22T03:59:17;4.60;99.90
4079;DHT22;2054;47.858;11.156;2024-03-22T04:01:43;4.50;99.90
4079;DHT22;2054;47.858;11.156;2024-03-22T04:04:08;4.50;99.90
4079;DHT22;2054;47.858;11.156;2024-03-22T04:06:34;4.50;99.90
4079;DHT22;2054;47.858;11.156;2024-03-22T04:09:00;4.50;99.90
4079;DHT22;2054;47.858;11.156;2024-03-22T04:11:26;4.50;99.90
4079;DHT22;2054;47.858;11.156;2024-03-22T04:13:51;4.50;99.90
4079;DHT22;2054;47.858;11.156;2024-03-22T04:16:17;4.40;99.90
4079;DHT22;2054;47.858;11.156;2024-03-22T04:18:42;4.40;99.90
4079;DHT22;2054;47.858;11.156;2024-03-22T04:21:08;4.40;99.90
4079;DHT22;2054;47.858;11.156;2024-03-22T04:23:33;4.30;99.90
4079;DHT22;2054;47.858;11.156;2024-03-22T04:26:00;4.40;99.90
4079;DHT22;2054;47.858;11.156;2024-03-22T04:28:27;4.40;99.90
4079;DHT22;2054;47.858;11.156;2024-03-22T04:31:03;4.50;99.90
4079;DHT22;2054;47.858;11.156;2024-03-22T04:33:30;4.50;99.90
4079;DHT22;2054;47.858;11.156;2024-03-22T04:35:57;4.50;99.90
4079;DHT22;2054;47.858;11.156;2024-03-22T04:38:24;4.40;99.90
4079;DHT22;2054;47.858;11.156;2024-03-22T04:40:50;4.40;99.90
4079;DHT22;2054;47.858;11.156;2024-03-22T04:43:16;4.40;99.90
4079;DHT22;2054;47.858;11.156;2024-03-22T04:45:44;4.40;99.90
4079;DHT22;2054;47.858;11.156;2024-03-22T04:48:12;4.20;99.90
4079;DHT22;2054;47.858;11.156;2024-03-22T04:50:38;4.10;99.90
4079;DHT22;2054;47.858;11.156;2024-03-22T04:53:04;4.10;99.90
4079;DHT22;2054;47.858;11.156;2024-03-22T04:55:30;4.10;99.90
4079;DHT22;2054;47.858;11.156;2024-03-22T04:57:56;4.10;99.90
4079;DHT22;2054;47.858;11.156;2024-03-22T05:00:22;4.10;99.90
4079;DHT22;2054;47.858;11.156;2024-03-22T05:02:47;4.10;99.90
4079;DHT22;2054;47.858;11.156;2024-03-22T05:05:13;4.00;99.90
4079;DHT22;2054;47.858;11.156;2024-03-22T05:07:39;4.10;99.90
4079;DHT22;2054;47.858;11.156;2024-03-22T05:10:04;4.10;99.90
4079;DHT22;2054;47.858;11.156;2024-03-22T05:12:31;4.10;99.90
4079;DHT22;2054;47.858;11.156;2024-03-22T05:14:56;4.00;99.90
4079;DHT22;2054;47.858;11.156;2024-03-22T05:17:22;4.00;99.90
4079;DHT22;2054;47.858;11.156;2024-03-22T05:19:47;4.00;99.90
4079;DHT22;2054;47.858;11.156;2024-03-22T05:22:13;4.10;99.90
4079;DHT22;2054;47.858;11.156;2024-03-22T05:24:38;4.00;99.90
4079;DHT22;2054;47.858;11.156;2024-03-22T05:27:04;4.00;99.90
4079;DHT22;2054;47.858;11.156;2024-03-22T05:29:30;4.00;99.90
4079;DHT22;2054;47.858;11.156;2024-03-22T05:31:55;4.20;99.90
4079;DHT22;2054;47.858;11.156;2024-03-22T05:34:22;4.30;99.90
4079;DHT22;2054;47.858;11.156;2024-03-22T05:36:48;4.40;99.90
4079;DHT22;2054;47.858;11.156;2024-03-22T05:39:14;4.40;99.90
4079;DHT22;2054;47.858;11.156;2024-03-22T05:41:40;4.60;99.90
4079;DHT22;2054;47.858;11.156;2024-03-22T05:44:06;4.70;99.90
4079;DHT22;2054;47.858;11.156;2024-03-22T05:46:31;4.80;99.90
4079;DHT22;2054;47.858;11.156;2024-03-22T05:48:58;4.90;99.90
4079;DHT22;2054;47.858;11.156;2024-03-22T05:51:24;5.00;99.90
4079;DHT22;2054;47.858;11.156;2024-03-22T05:53:50;5.10;99.90
4079;DHT22;2054;47.858;11.156;2024-03-22T05:56:15;5.20;99.90
4079;DHT22;2054;47.858;11.156;2024-03-22T05:58:41;5.30;99.90
4079;DHT22;2054;47.858;11.156;2024-03-22T06:01:06;5.40;99.90
4079;DHT22;2054;47.858;11.156;2024-03-22T06:03:32;5.50;99.90
4079;DHT22;2054;47.858;11.156;2024-03-22T06:05:59;5.60;99.90
4079;DHT22;2054;47.858;11.156;2024-03-22T06:08:29;5.70;99.90
4079;DHT22;2054;47.858;11.156;2024-03-22T06:10:55;5.80;99.90
4079;DHT22;2054;47.858;11.156;2024-03-22T06:13:24;5.80;99.90
4079;DHT22;2054;47.858;11.156;2024-03-22T06:15:50;6.00;99.90
4079;DHT22;2054;47.858;11.156;2024-03-22T06:18:15;6.00;99.90
4079;DHT22;2054;47.858;11.156;2024-03-22T06:20:41;6.00;99.90
4079;DHT22;2054;47.858;11.156;2024-03-22T06:23:10;6.00;99.90
4079;DHT22;2054;47.858;11.156;2024-03-22T06:25:35;6.00;99.90
4079;DHT22;2054;47.858;11.156;2024-03-22T06:28:01;6.00;99.90
4079;DHT22;2054;47.858;11.156;2024-03-22T06:30:27;6.10;99.90
4079;DHT22;2054;47.858;11.156;2024-03-22T06:32:53;6.10;99.90
4079;DHT22;2054;47.858;11.156;2024-03-22T06:35:22;6.10;99.90
4079;DHT22;2054;47.858;11.156;2024-03-22T06:37:48;6.10;99.90
4079;DHT22;2054;47.858;11.156;2024-03-22T06:40:14;6.10;99.90
4079;DHT22;2054;47.858;11.156;2024-03-22T06:42:40;6.10;99.90
4079;DHT22;2054;47.858;11.156;2024-03-22T06:45:06;6.10;99.90
4079;DHT22;2054;47.858;11.156;2024-03-22T06:47:32;6.00;99.90
4079;DHT22;2054;47.858;11.156;2024-03-22T06:49:57;5.90;99.90
4079;DHT22;2054;47.858;11.156;2024-03-22T06:52:23;6.00;99.90
4079;DHT22;2054;47.858;11.156;2024-03-22T06:54:50;6.00;99.90
4079;DHT22;2054;47.858;11.156;2024-03-22T06:57:16;6.10;99.90
4079;DHT22;2054;47.858;11.156;2024-03-22T06:59:41;6.20;99.90
4079;DHT22;2054;47.858;11.156;2024-03-22T07:02:07;6.40;99.90
4079;DHT22;2054;47.858;11.156;2024-03-22T07:04:40;6.20;99.90
4079;DHT22;2054;47.858;11.156;2024-03-22T07:07:06;6.40;99.90
4079;DHT22;2054;47.858;11.156;2024-03-22T07:09:33;6.20;99.90
4079;DHT22;2054;47.858;11.156;2024-03-22T07:11:58;6.30;99.90
4079;DHT22;2054;47.858;11.156;2024-03-22T07:14:24;6.40;99.90
4079;DHT22;2054;47.858;11.156;2024-03-22T07:16:51;6.50;99.90
4079;DHT22;2054;47.858;11.156;2024-03-22T07:19:19;6.70;99.90
4079;DHT22;2054;47.858;11.156;2024-03-22T07:21:46;6.70;99.90
4079;DHT22;2054;47.858;11.156;2024-03-22T07:24:13;6.80;99.90
4079;DHT22;2054;47.858;11.156;2024-03-22T07:26:39;7.00;99.90
4079;DHT22;2054;47.858;11.156;2024-03-22T07:29:05;7.10;99.90
4079;DHT22;2054;47.858;11.156;2024-03-22T07:31:31;7.30;99.90
4079;DHT22;2054;47.858;11.156;2024-03-22T07:33:56;7.50;99.90
4079;DHT22;2054;47.858;11.156;2024-03-22T07:36:22;7.60;99.90
4079;DHT22;2054;47.858;11.156;2024-03-22T07:38:47;7.90;99.90
4079;DHT22;2054;47.858;11.156;2024-03-22T07:41:16;8.10;99.90
4079;DHT22;2054;47.858;11.156;2024-03-22T07:43:43;8.30;99.90
4079;DHT22;2054;47.858;11.156;2024-03-22T07:46:09;8.50;99.90
4079;DHT22;2054;47.858;11.156;2024-03-22T07:48:34;8.70;99.90
4079;DHT22;2054;47.858;11.156;2024-03-22T07:51:01;8.80;99.90
4079;DHT22;2054;47.858;11.156;2024-03-22T07:53:27;8.90;99.90
4079;DHT22;2054;47.858;11.156;2024-03-22T07:55:52;9.10;99.90
4079;DHT22;2054;47.858;11.156;2024-03-22T07:58:18;9.40;99.90
4079;DHT22;2054;47.858;11.156;2024-03-22T08:00:44;9.40;99.90
4079;DHT22;2054;47.858;11.156;2024-03-22T08:03:15;9.50;99.90
4079;DHT22;2054;47.858;11.156;2024-03-22T08:05:40;9.70;99.90
4079;DHT22;2054;47.858;11.156;2024-03-22T08:08:06;9.90;99.90
4079;DHT22;2054;47.858;11.156;2024-03-22T08:10:32;10.00;99.90
4079;DHT22;2054;47.858;11.156;2024-03-22T08:12:57;10.20;99.90
4079;DHT22;2054;47.858;11.156;2024-03-22T08:15:23;10.30;99.90
4079;DHT22;2054;47.858;11.156;2024-03-22T08:17:49;10.40;99.90
4079;DHT22;2054;47.858;11.156;2024-03-22T08:20:15;10.50;99.90
4079;DHT22;2054;47.858;11.156;2024-03-22T08:22:40;10.60;99.90
4079;DHT22;2054;47.858;11.156;2024-03-22T08:25:06;10.80;99.90
4079;DHT22;2054;47.858;11.156;2024-03-22T08:27:33;10.90;99.90
4079;DHT22;2054;47.858;11.156;2024-03-22T08:29:59;11.00;99.90
4079;DHT22;2054;47.858;11.156;2024-03-22T08:32:25;11.10;99.90
4079;DHT22;2054;47.858;11.156;2024-03-22T08:34:51;11.20;99.90
4079;DHT22;2054;47.858;11.156;2024-03-22T08:37:16;11.40;99.90
4079;DHT22;2054;47.858;11.156;2024-03-22T08:39:42;11.50;99.90
4079;DHT22;2054;47.858;11.156;2024-03-22T08:42:07;11.60;99.90
4079;DHT22;2054;47.858;11.156;2024-03-22T08:44:34;11.80;99.90
4079;DHT22;2054;47.858;11.156;2024-03-22T08:47:00;11.90;99.90
4079;DHT22;2054;47.858;11.156;2024-03-22T08:49:27;11.90;99.90
4079;DHT22;2054;47.858;11.156;2024-03-22T08:51:52;12.10;99.90
4079;DHT22;2054;47.858;11.156;2024-03-22T08:54:18;12.10;99.90
4079;DHT22;2054;47.858;11.156;2024-03-22T08:56:43;12.20;99.90
4079;DHT22;2054;47.858;11.156;2024-03-22T08:59:09;12.30;99.90
4079;DHT22;2054;47.858;11.156;2024-03-22T09:01:36;12.40;99.90
4079;DHT22;2054;47.858;11.156;2024-03-22T09:04:02;12.50;99.90
4079;DHT22;2054;47.858;11.156;2024-03-22T09:06:27;12.60;99.90
4079;DHT22;2054;47.858;11.156;2024-03-22T09:08:53;12.80;99.90
4079;DHT22;2054;47.858;11.156;2024-03-22T09:11:23;12.90;99.90
4079;DHT22;2054;47.858;11.156;2024-03-22T09:13:52;13.00;99.90
4079;DHT22;2054;47.858;11.156;2024-03-22T09:16:17;13.10;99.90
4079;DHT22;2054;47.858;11.156;2024-03-22T09:18:43;13.30;99.90
4079;DHT22;2054;47.858;11.156;2024-03-22T09:21:08;13.50;99.90
4079;DHT22;2054;47.858;11.156;2024-03-22T09:23:37;13.60;99.90
4079;DHT22;2054;47.858;11.156;2024-03-22T09:26:03;14.00;99.90
4079;DHT22;2054;47.858;11.156;2024-03-22T09:28:28;13.80;99.90
4079;DHT22;2054;47.858;11.156;2024-03-22T09:30:54;13.80;99.90
4079;DHT22;2054;47.858;11.156;2024-03-22T09:33:19;14.00;99.90
4079;DHT22;2054;47.858;11.156;2024-03-22T09:35:45;14.10;99.90
4079;DHT22;2054;47.858;11.156;2024-03-22T09:38:11;14.20;99.90
4079;DHT22;2054;47.858;11.156;2024-03-22T09:40:39;14.20;99.90
4079;DHT22;2054;47.858;11.156;2024-03-22T09:43:06;14.20;99.90
4079;DHT22;2054;47.858;11.156;2024-03-22T09:45:32;14.30;99.90
4079;DHT22;2054;47.858;11.156;2024-03-22T09:47:59;14.30;99.90
4079;DHT22;2054;47.858;11.156;2024-03-22T09:50:26;14.40;99.90
4079;DHT22;2054;47.858;11.156;2024-03-22T09:52:53;14.50;99.90
4079;DHT22;2054;47.858;11.156;2024-03-22T09:55:23;14.60;99.90
4079;DHT22;2054;47.858;11.156;2024-03-22T09:57:49;14.80;99.90
4079;DHT22;2054;47.858;11.156;2024-03-22T10:00:20;14.90;99.90
4079;DHT22;2054;47.858;11.156;2024-03-22T10:02:50;15.00;99.90
4079;DHT22;2054;47.858;11.156;2024-03-22T10:05:16;15.10;99.90
4079;DHT22;2054;47.858;11.156;2024-03-22T10:07:43;15.20;99.90
4079;DHT22;2054;47.858;11.156;2024-03-22T10:10:09;15.40;99.90
4079;DHT22;2054;47.858;11.156;2024-03-22T10:12:35;15.60;99.90
4079;DHT22;2054;47.858;11.156;2024-03-22T10:15:01;15.90;99.90
4079;DHT22;2054;47.858;11.156;2024-03-22T10:17:30;16.00;99.90
4079;DHT22;2054;47.858;11.156;2024-03-22T10:19:55;16.10;99.90
4079;DHT22;2054;47.858;11.156;2024-03-22T10:22:21;16.20;99.90
4079;DHT22;2054;47.858;11.156;2024-03-22T10:24:47;16.40;99.90
4079;DHT22;2054;47.858;11.156;2024-03-22T10:27:13;16.50;99.90
4079;DHT22;2054;47.858;11.156;2024-03-22T10:29:39;16.70;99.90
4079;DHT22;2054;47.858;11.156;2024-03-22T10:32:05;16.60;99.90
4079;DHT22;2054;47.858;11.156;2024-03-22T10:34:32;16.60;99.90
4079;DHT22;2054;47.858;11.156;2024-03-22T10:37:00;16.50;99.90
4079;DHT22;2054;47.858;11.156;2024-03-22T10:39:27;16.40;99.90
4079;DHT22;2054;47.858;11.156;2024-03-22T10:41:54;16.50;99.90
4079;DHT22;2054;47.858;11.156;2024-03-22T10:44:19;16.60;99.90
4079;DHT22;2054;47.858;11.156;2024-03-22T10:46:46;16.70;99.90
4079;DHT22;2054;47.858;11.156;2024-03-22T10:49:16;16.90;99.90
4079;DHT22;2054;47.858;11.156;2024-03-22T10:51:54;17.20;99.90
4079;DHT22;2054;47.858;11.156;2024-03-22T10:54:26;16.80;99.90
4079;DHT22;2054;47.858;11.156;2024-03-22T10:56:53;16.70;99.90
4079;DHT22;2054;47.858;11.156;2024-03-22T10:59:21;16.80;99.90
4079;DHT22;2054;47.858;11.156;2024-03-22T11:01:48;17.00;99.90
4079;DHT22;2054;47.858;11.156;2024-03-22T11:04:21;17.20;99.90
4079;DHT22;2054;47.858;11.156;2024-03-22T11:06:52;17.00;99.90
4079;DHT22;2054;47.858;11.156;2024-03-22T11:09:21;17.30;99.90
4079;DHT22;2054;47.858;11.156;2024-03-22T11:11:48;17.50;99.90
4079;DHT22;2054;47.858;11.156;2024-03-22T11:14:13;17.90;99.90
4079;DHT22;2054;47.858;11.156;2024-03-22T11:16:45;17.80;99.90
4079;DHT22;2054;47.858;11.156;2024-03-22T11:19:12;17.70;99.90
4079;DHT22;2054;47.858;11.156;2024-03-22T11:21:39;17.60;99.90
4079;DHT22;2054;47.858;11.156;2024-03-22T11:24:05;17.40;99.90
4079;DHT22;2054;47.858;11.156;2024-03-22T11:26:34;17.50;99.90
4079;DHT22;2054;47.858;11.156;2024-03-22T11:29:00;17.80;99.90
4079;DHT22;2054;47.858;11.156;2024-03-22T11:31:27;17.80;99.90
4079;DHT22;2054;47.858;11.156;2024-03-22T11:33:54;17.80;99.90
4079;DHT22;2054;47.858;11.156;2024-03-22T11:36:20;17.90;99.90
4079;DHT22;2054;47.858;11.156;2024-03-22T11:38:46;17.90;99.90
4079;DHT22;2054;47.858;11.156;2024-03-22T11:41:17;18.10;99.90
4079;DHT22;2054;47.858;11.156;2024-03-22T11:43:44;18.10;99.90
4079;DHT22;2054;47.858;11.156;2024-03-22T11:46:10;17.90;99.90
4079;DHT22;2054;47.858;11.156;2024-03-22T11:48:42;17.80;99.90
4079;DHT22;2054;47.858;11.156;2024-03-22T11:51:08;18.00;99.90
4079;DHT22;2054;47.858;11.156;2024-03-22T11:53:35;18.00;99.90
4079;DHT22;2054;47.858;11.156;2024-03-22T11:56:06;18.00;99.90
4079;DHT22;2054;47.858;11.156;2024-03-22T11:58:33;18.20;99.90
4079;DHT22;2054;47.858;11.156;2024-03-22T12:01:00;18.40;99.90
4079;DHT22;2054;47.858;11.156;2024-03-22T12:03:25;18.60;99.90
4079;DHT22;2054;47.858;11.156;2024-03-22T12:05:54;18.80;99.90
4079;DHT22;2054;47.858;11.156;2024-03-22T12:08:20;19.00;99.90
4079;DHT22;2054;47.858;11.156;2024-03-22T12:10:46;19.10;99.80
4079;DHT22;2054;47.858;11.156;2024-03-22T12:13:11;19.20;99.60
4079;DHT22;2054;47.858;11.156;2024-03-22T12:15:37;19.00;99.10
4079;DHT22;2054;47.858;11.156;2024-03-22T12:18:04;18.70;98.40
4079;DHT22;2054;47.858;11.156;2024-03-22T12:20:30;18.60;98.70
4079;DHT22;2054;47.858;11.156;2024-03-22T12:22:56;18.60;99.90
4079;DHT22;2054;47.858;11.156;2024-03-22T12:25:21;18.60;99.90
4079;DHT22;2054;47.858;11.156;2024-03-22T12:27:47;18.50;99.70
4079;DHT22;2054;47.858;11.156;2024-03-22T12:30:13;18.50;99.90
4079;DHT22;2054;47.858;11.156;2024-03-22T12:32:38;18.50;99.50
4079;DHT22;2054;47.858;11.156;2024-03-22T12:35:05;18.50;98.40
4079;DHT22;2054;47.858;11.156;2024-03-22T12:37:30;18.40;98.60
4079;DHT22;2054;47.858;11.156;2024-03-22T12:39:58;18.30;99.00
4079;DHT22;2054;47.858;11.156;2024-03-22T12:42:23;18.20;99.30
4079;DHT22;2054;47.858;11.156;2024-03-22T12:44:49;18.30;99.30
4079;DHT22;2054;47.858;11.156;2024-03-22T12:47:15;18.30;98.60
4079;DHT22;2054;47.858;11.156;2024-03-22T12:49:41;18.40;98.80
4079;DHT22;2054;47.858;11.156;2024-03-22T12:52:07;18.40;99.30
4079;DHT22;2054;47.858;11.156;2024-03-22T12:54:33;18.40;98.40
4079;DHT22;2054;47.858;11.156;2024-03-22T12:56:58;18.60;99.10
4079;DHT22;2054;47.858;11.156;2024-03-22T12:59:24;18.60;98.30
4079;DHT22;2054;47.858;11.156;2024-03-22T13:01:50;18.70;98.50
4079;DHT22;2054;47.858;11.156;2024-03-22T13:04:15;18.70;98.60
4079;DHT22;2054;47.858;11.156;2024-03-22T13:06:43;18.90;98.50
4079;DHT22;2054;47.858;11.156;2024-03-22T13:09:08;18.90;98.50
4079;DHT22;2054;47.858;11.156;2024-03-22T13:11:35;19.00;98.10
4079;DHT22;2054;47.858;11.156;2024-03-22T13:14:01;19.00;97.90
4079;DHT22;2054;47.858;11.156;2024-03-22T13:16:27;19.10;97.40
4079;DHT22;2054;47.858;11.156;2024-03-22T13:18:53;19.10;97.80
4079;DHT22;2054;47.858;11.156;2024-03-22T13:21:18;19.20;97.90
4079;DHT22;2054;47.858;11.156;2024-03-22T13:23:44;19.10;98.30
4079;DHT22;2054;47.858;11.156;2024-03-22T13:26:10;19.00;98.30
4079;DHT22;2054;47.858;11.156;2024-03-22T13:28:36;18.60;97.30
4079;DHT22;2054;47.858;11.156;2024-03-22T13:31:05;18.40;98.30
4079;DHT22;2054;47.858;11.156;2024-03-22T13:33:34;18.30;97.80
4079;DHT22;2054;47.858;11.156;2024-03-22T13:36:00;18.50;97.90
4079;DHT22;2054;47.858;11.156;2024-03-22T13:38:25;18.60;97.30
4079;DHT22;2054;47.858;11.156;2024-03-22T13:40:55;18.50;96.80
4079;DHT22;2054;47.858;11.156;2024-03-22T13:43:21;18.40;97.00
4079;DHT22;2054;47.858;11.156;2024-03-22T13:45:50;18.40;96.10
4079;DHT22;2054;47.858;11.156;2024-03-22T13:48:16;18.60;96.50
4079;DHT22;2054;47.858;11.156;2024-03-22T13:50:41;18.40;96.90
4079;DHT22;2054;47.858;11.156;2024-03-22T13:53:07;18.30;95.70
4079;DHT22;2054;47.858;11.156;2024-03-22T13:55:34;18.10;96.50
4079;DHT22;2054;47.858;11.156;2024-03-22T13:58:00;18.10;95.50
4079;DHT22;2054;47.858;11.156;2024-03-22T14:00:27;18.10;94.90
4079;DHT22;2054;47.858;11.156;2024-03-22T14:02:52;18.20;95.40
4079;DHT22;2054;47.858;11.156;2024-03-22T14:05:20;18.40;95.20
4079;DHT22;2054;47.858;11.156;2024-03-22T14:07:46;18.40;94.10
4079;DHT22;2054;47.858;11.156;2024-03-22T14:10:12;18.30;94.20
4079;DHT22;2054;47.858;11.156;2024-03-22T14:12:42;18.30;93.80
4079;DHT22;2054;47.858;11.156;2024-03-22T14:15:08;18.30;94.00
4079;DHT22;2054;47.858;11.156;2024-03-22T14:17:34;18.20;93.50
4079;DHT22;2054;47.858;11.156;2024-03-22T14:19:59;18.20;92.90
4079;DHT22;2054;47.858;11.156;2024-03-22T14:22:26;18.30;93.90
4079;DHT22;2054;47.858;11.156;2024-03-22T14:24:51;18.50;92.60
4079;DHT22;2054;47.858;11.156;2024-03-22T14:27:17;18.50;93.80
4079;DHT22;2054;47.858;11.156;2024-03-22T14:29:45;18.60;92.00
4079;DHT22;2054;47.858;11.156;2024-03-22T14:32:11;18.60;91.70
4079;DHT22;2054;47.858;11.156;2024-03-22T14:34:36;18.80;93.00
4079;DHT22;2054;47.858;11.156;2024-03-22T14:37:02;18.90;92.40
4079;DHT22;2054;47.858;11.156;2024-03-22T14:39:29;18.90;92.10
4079;DHT22;2054;47.858;11.156;2024-03-22T14:41:55;19.10;92.20
4079;DHT22;2054;47.858;11.156;2024-03-22T14:44:20;19.20;91.30
4079;DHT22;2054;47.858;11.156;2024-03-22T14:46:46;19.10;90.80
4079;DHT22;2054;47.858;11.156;2024-03-22T14:49:12;19.10;90.90
4079;DHT22;2054;47.858;11.156;2024-03-22T14:51:38;19.10;90.50
4079;DHT22;2054;47.858;11.156;2024-03-22T14:54:03;19.00;90.90
4079;DHT22;2054;47.858;11.156;2024-03-22T14:56:30;18.90;91.10
4079;DHT22;2054;47.858;11.156;2024-03-22T14:58:55;18.70;90.30
4079;DHT22;2054;47.858;11.156;2024-03-22T15:01:23;18.60;90.80
4079;DHT22;2054;47.858;11.156;2024-03-22T15:03:48;18.50;90.90
4079;DHT22;2054;47.858;11.156;2024-03-22T15:06:15;18.50;91.40
4079;DHT22;2054;47.858;11.156;2024-03-22T15:08:41;18.50;91.70
4079;DHT22;2054;47.858;11.156;2024-03-22T15:11:06;18.50;90.60
4079;DHT22;2054;47.858;11.156;2024-03-22T15:13:32;18.50;90.50
4079;DHT22;2054;47.858;11.156;2024-03-22T15:15:58;18.60;90.90
4079;DHT22;2054;47.858;11.156;2024-03-22T15:18:28;18.60;91.60
4079;DHT22;2054;47.858;11.156;2024-03-22T15:20:54;18.60;91.20
4079;DHT22;2054;47.858;11.156;2024-03-22T15:23:19;18.40;91.10
4079;DHT22;2054;47.858;11.156;2024-03-22T15:25:48;18.50;91.20
4079;DHT22;2054;47.858;11.156;2024-03-22T15:28:14;18.50;90.80
4079;DHT22;2054;47.858;11.156;2024-03-22T15:30:41;18.60;91.10
4079;DHT22;2054;47.858;11.156;2024-03-22T15:33:13;18.80;91.50
4079;DHT22;2054;47.858;11.156;2024-03-22T15:35:39;19.40;91.50
4079;DHT22;2054;47.858;11.156;2024-03-22T15:38:07;20.20;90.50
4079;DHT22;2054;47.858;11.156;2024-03-22T15:40:32;20.50;88.80
4079;DHT22;2054;47.858;11.156;2024-03-22T15:42:59;21.00;90.40
4079;DHT22;2054;47.858;11.156;2024-03-22T15:45:24;21.50;89.30
4079;DHT22;2054;47.858;11.156;2024-03-22T15:47:50;22.20;89.20
4079;DHT22;2054;47.858;11.156;2024-03-22T15:50:16;22.50;84.50
4079;DHT22;2054;47.858;11.156;2024-03-22T15:52:41;22.60;83.20
4079;DHT22;2054;47.858;11.156;2024-03-22T15:55:07;22.40;83.20
4079;DHT22;2054;47.858;11.156;2024-03-22T15:57:33;22.10;82.60
4079;DHT22;2054;47.858;11.156;2024-03-22T15:59:59;22.20;82.60
4079;DHT22;2054;47.858;11.156;2024-03-22T16:02:24;22.20;82.60
4079;DHT22;2054;47.858;11.156;2024-03-22T16:04:50;22.20;83.10
4079;DHT22;2054;47.858;11.156;2024-03-22T16:07:17;22.20;80.40
4079;DHT22;2054;47.858;11.156;2024-03-22T16:09:42;22.20;80.90
4079;DHT22;2054;47.858;11.156;2024-03-22T16:12:09;22.00;81.10
4079;DHT22;2054;47.858;11.156;2024-03-22T16:14:35;21.80;80.80
4079;DHT22;2054;47.858;11.156;2024-03-22T16:17:03;21.80;78.80
4079;DHT22;2054;47.858;11.156;2024-03-22T16:21:54;21.80;79.00
4079;DHT22;2054;47.858;11.156;2024-03-22T16:24:20;21.60;80.50
4079;DHT22;2054;47.858;11.156;2024-03-22T16:26:48;21.60;79.70
4079;DHT22;2054;47.858;11.156;2024-03-22T16:29:14;21.30;80.60
4079;DHT22;2054;47.858;11.156;2024-03-22T16:31:39;21.30;81.30
4079;DHT22;2054;47.858;11.156;2024-03-22T16:34:08;21.30;80.50
4079;DHT22;2054;47.858;11.156;2024-03-22T16:36:33;21.10;80.10
4079;DHT22;2054;47.858;11.156;2024-03-22T16:38:59;20.70;80.10
4079;DHT22;2054;47.858;11.156;2024-03-22T16:41:24;20.50;82.10
4079;DHT22;2054;47.858;11.156;2024-03-22T16:43:52;20.40;83.80
4079;DHT22;2054;47.858;11.156;2024-03-22T16:46:17;20.70;83.00
4079;DHT22;2054;47.858;11.156;2024-03-22T16:48:43;21.00;81.20
4079;DHT22;2054;47.858;11.156;2024-03-22T16:51:09;21.60;81.90
4079;DHT22;2054;47.858;11.156;2024-03-22T16:53:35;22.00;80.50
4079;DHT22;2054;47.858;11.156;2024-03-22T16:56:00;22.20;79.60
4079;DHT22;2054;47.858;11.156;2024-03-22T16:58:26;22.60;78.50
4079;DHT22;2054;47.858;11.156;2024-03-22T17:00:52;22.80;78.70
4079;DHT22;2054;47.858;11.156;2024-03-22T17:03:19;22.70;77.10
4079;DHT22;2054;47.858;11.156;2024-03-22T17:05:45;22.60;76.00
4079;DHT22;2054;47.858;11.156;2024-03-22T17:08:11;22.40;76.60
4079;DHT22;2054;47.858;11.156;2024-03-22T17:10:41;22.30;77.40
4079;DHT22;2054;47.858;11.156;2024-03-22T17:13:07;22.10;77.90
4079;DHT22;2054;47.858;11.156;2024-03-22T17:15:33;21.90;79.80
4079;DHT22;2054;47.858;11.156;2024-03-22T17:18:00;21.60;80.10
4079;DHT22;2054;47.858;11.156;2024-03-22T17:20:26;21.20;79.70
4079;DHT22;2054;47.858;11.156;2024-03-22T17:22:51;20.80;79.80
4079;DHT22;2054;47.858;11.156;2024-03-22T17:25:18;20.40;80.50
4079;DHT22;2054;47.858;11.156;2024-03-22T17:27:44;20.00;80.80
4079;DHT22;2054;47.858;11.156;2024-03-22T17:30:10;19.60;83.40
4079;DHT22;2054;47.858;11.156;2024-03-22T17:32:37;19.20;86.40
4079;DHT22;2054;47.858;11.156;2024-03-22T17:35:02;18.90;89.50
4079;DHT22;2054;47.858;11.156;2024-03-22T17:37:28;18.50;91.00
4079;DHT22;2054;47.858;11.156;2024-03-22T17:39:54;18.30;92.00
4079;DHT22;2054;47.858;11.156;2024-03-22T17:42:21;17.90;92.80
